createdAt,value
2018-10-18T00:01:52.491Z,8.27
2018-10-18T00:04:19.997Z,9.00
2018-10-18T00:06:47.521Z,8.10
2018-10-18T00:09:15.028Z,8.47
2018-10-18T00:11:42.511Z,8.27
2018-10-18T00:14:10.065Z,7.03
2018-10-18T00:16:37.463Z,7.97
2018-10-18T00:19:05.022Z,8.47
2018-10-18T00:21:32.528Z,8.93
2018-10-18T00:24:00.088Z,9.00
2018-10-18T00:26:27.513Z,8.67
2018-10-18T00:28:55.007Z,8.27
2018-10-18T00:31:22.532Z,8.77
2018-10-18T00:33:50.132Z,9.80
2018-10-18T00:36:17.682Z,9.20
2018-10-18T00:38:45.123Z,8.90
2018-10-18T00:41:12.595Z,9.33
2018-10-18T00:43:40.107Z,9.53
2018-10-18T00:46:07.597Z,9.47
2018-10-18T00:48:35.063Z,9.50
2018-10-18T00:51:02.615Z,10.03
2018-10-18T00:53:30.091Z,9.67
2018-10-18T00:55:57.639Z,9.93
2018-10-18T00:58:25.317Z,10.27
2018-10-18T01:00:52.797Z,10.30
2018-10-18T01:03:20.321Z,11.37
2018-10-18T01:05:47.901Z,10.17
2018-10-18T01:08:15.501Z,9.60
2018-10-18T01:10:42.960Z,10.53
2018-10-18T01:13:10.488Z,9.50
2018-10-18T01:15:38.013Z,9.17
2018-10-18T01:18:06.101Z,9.87
2018-10-18T01:20:33.551Z,10.23
2018-10-18T01:23:01.031Z,10.87
2018-10-18T01:25:28.539Z,9.93
2018-10-18T01:27:56.033Z,9.47
2018-10-18T01:30:23.516Z,10.30
2018-10-18T01:32:51.031Z,9.47
2018-10-18T01:35:18.551Z,9.27
2018-10-18T01:37:46.076Z,9.57
2018-10-18T01:40:13.564Z,9.30
2018-10-18T01:42:41.063Z,8.70
2018-10-18T01:45:08.621Z,10.00
2018-10-18T01:47:36.090Z,8.57
2018-10-18T01:50:04.763Z,9.20
2018-10-18T01:52:32.183Z,10.97
2018-10-18T01:54:59.664Z,9.07
2018-10-18T01:57:27.159Z,9.63
2018-10-18T01:59:54.648Z,10.37
2018-10-18T02:02:22.158Z,11.20
2018-10-18T02:04:49.671Z,11.90
2018-10-18T02:07:17.233Z,11.30
2018-10-18T02:09:44.750Z,10.83
2018-10-18T02:12:12.393Z,9.83
2018-10-18T02:14:39.784Z,11.47
2018-10-18T02:17:07.237Z,10.40
2018-10-18T02:19:34.723Z,10.07
2018-10-18T02:22:02.211Z,9.83
2018-10-18T02:24:29.713Z,10.40
2018-10-18T02:26:57.205Z,10.07
2018-10-18T02:29:24.725Z,10.67
2018-10-18T02:31:52.210Z,10.10
2018-10-18T02:34:19.716Z,10.20
2018-10-18T02:36:47.180Z,10.87
2018-10-18T02:39:14.668Z,9.07
2018-10-18T02:41:42.173Z,9.23
2018-10-18T02:44:09.674Z,9.43
2018-10-18T02:46:37.176Z,8.27
2018-10-18T02:49:04.729Z,9.93
2018-10-18T02:51:32.242Z,8.10
2018-10-18T02:53:59.801Z,8.17
2018-10-18T02:56:27.313Z,9.23
2018-10-18T02:58:54.822Z,9.17
2018-10-18T03:01:22.343Z,9.40
2018-10-18T03:03:49.906Z,9.00
2018-10-18T03:06:17.525Z,10.50
2018-10-18T03:08:44.966Z,9.77
2018-10-18T03:11:12.497Z,9.67
2018-10-18T03:13:39.996Z,8.63
2018-10-18T03:16:07.596Z,10.13
2018-10-18T03:18:35.037Z,9.53
2018-10-18T03:21:02.536Z,8.97
2018-10-18T03:23:30.035Z,9.27
2018-10-18T03:25:57.534Z,10.10
2018-10-18T03:28:25.059Z,10.03
2018-10-18T03:30:52.569Z,11.43
2018-10-18T03:33:20.097Z,10.10
2018-10-18T03:35:47.582Z,10.50
2018-10-18T03:38:15.062Z,8.93
2018-10-18T03:40:42.616Z,8.83
2018-10-18T03:43:10.113Z,10.77
2018-10-18T03:45:37.600Z,9.17
2018-10-18T03:48:05.199Z,9.30
2018-10-18T03:50:32.616Z,9.03
2018-10-18T03:53:00.175Z,9.90
2018-10-18T03:55:27.687Z,9.93
2018-10-18T03:57:55.194Z,10.00
2018-10-18T04:00:22.683Z,11.20
2018-10-18T04:02:50.184Z,9.93
2018-10-18T04:05:17.693Z,10.07
2018-10-18T04:07:45.191Z,10.57
2018-10-18T04:10:12.693Z,9.07
2018-10-18T04:12:40.221Z,10.13
2018-10-18T04:15:07.783Z,9.53
2018-10-18T04:17:35.314Z,9.77
2018-10-18T04:20:02.859Z,10.00
2018-10-18T04:22:30.351Z,9.60
2018-10-18T04:24:57.894Z,9.37
2018-10-18T04:27:25.355Z,9.00
2018-10-18T04:29:53.033Z,10.50
2018-10-18T04:32:20.792Z,9.90
2018-10-18T04:34:48.289Z,10.93
2018-10-18T04:37:15.808Z,10.93
2018-10-18T04:39:43.306Z,9.97
2018-10-18T04:42:10.909Z,10.50
2018-10-18T04:44:38.331Z,10.53
2018-10-18T04:47:06.178Z,10.10
2018-10-18T04:49:33.634Z,11.17
2018-10-18T04:52:01.168Z,10.73
2018-10-18T04:54:28.667Z,10.77
2018-10-18T04:56:56.288Z,10.97
2018-10-18T04:59:23.765Z,9.93
2018-10-18T05:01:51.263Z,10.27
2018-10-18T05:04:18.768Z,9.77
2018-10-18T05:06:46.260Z,10.87
2018-10-18T05:09:13.766Z,11.13
2018-10-18T05:11:41.261Z,10.57
2018-10-18T05:14:08.768Z,10.17
2018-10-18T05:16:42.949Z,9.97
2018-10-18T05:19:10.540Z,10.27
2018-10-18T05:21:37.972Z,11.17
2018-10-18T05:24:05.558Z,10.57
2018-10-18T05:26:33.066Z,10.37
2018-10-18T05:29:00.538Z,10.27
2018-10-18T05:31:28.122Z,11.00
2018-10-18T05:33:55.570Z,9.30
2018-10-18T05:36:23.081Z,9.30
2018-10-18T05:38:50.609Z,9.63
2018-10-18T05:41:18.155Z,10.10
2018-10-18T05:43:45.713Z,10.70
2018-10-18T05:46:13.348Z,10.00
2018-10-18T05:48:40.857Z,9.40
2018-10-18T05:51:08.385Z,8.70
2018-10-18T05:53:35.946Z,9.13
2018-10-18T05:56:03.417Z,9.50
2018-10-18T05:58:30.924Z,10.37
2018-10-18T06:00:58.445Z,9.63
2018-10-18T06:03:25.944Z,8.50
2018-10-18T06:05:53.438Z,10.23
2018-10-18T06:08:21.703Z,9.83
2018-10-18T06:11:00.498Z,9.73
2018-10-18T06:13:28.054Z,9.73
2018-10-18T06:15:55.568Z,9.17
2018-10-18T06:18:23.070Z,9.77
2018-10-18T06:20:50.721Z,9.27
2018-10-18T06:23:18.274Z,9.93
2018-10-18T06:25:45.742Z,8.40
2018-10-18T06:28:13.286Z,9.03
2018-10-18T06:30:40.780Z,9.30
2018-10-18T06:33:08.338Z,8.93
2018-10-18T06:35:35.844Z,9.40
2018-10-18T06:38:03.639Z,9.53
2018-10-18T06:40:31.137Z,8.17
2018-10-18T06:42:58.713Z,8.20
2018-10-18T06:45:26.172Z,7.67
2018-10-18T06:47:53.837Z,7.60
2018-10-18T06:50:21.309Z,7.50
2018-10-18T06:52:48.862Z,7.93
2018-10-18T06:55:16.403Z,8.60
2018-10-18T06:57:44.324Z,8.73
2018-10-18T07:00:14.906Z,8.73
2018-10-18T07:02:43.004Z,8.70
2018-10-18T07:05:11.845Z,8.77
2018-10-18T07:07:39.429Z,9.30
2018-10-18T07:10:07.192Z,9.63
2018-10-18T07:12:35.197Z,9.73
2018-10-18T07:15:03.054Z,9.20
2018-10-18T07:17:30.632Z,8.70
2018-10-18T07:19:58.098Z,9.23
2018-10-18T07:22:25.592Z,8.97
2018-10-18T07:24:53.152Z,8.77
2018-10-18T07:27:20.672Z,8.53
2018-10-18T07:29:48.154Z,8.63
2018-10-18T07:32:15.636Z,9.77
2018-10-18T07:34:43.129Z,9.87
2018-10-18T07:37:10.658Z,7.90
2018-10-18T07:39:38.106Z,10.07
2018-10-18T07:42:05.894Z,9.60
2018-10-18T07:44:33.374Z,8.53
2018-10-18T07:47:00.868Z,9.77
2018-10-18T07:49:28.438Z,8.57
2018-10-18T07:51:55.954Z,8.53
2018-10-18T07:54:23.428Z,9.77
2018-10-18T07:56:50.964Z,8.63
2018-10-18T07:59:18.480Z,9.60
2018-10-18T08:01:45.963Z,9.93
2018-10-18T08:04:13.477Z,9.00
2018-10-18T08:06:40.956Z,10.47
2018-10-18T08:09:10.709Z,10.03
2018-10-18T08:11:38.453Z,8.97
2018-10-18T08:14:05.917Z,9.27
2018-10-18T08:16:33.446Z,8.83
2018-10-18T08:19:01.325Z,8.93
2018-10-18T08:21:28.792Z,9.47
2018-10-18T08:23:56.298Z,8.83
2018-10-18T08:26:23.834Z,9.77
2018-10-18T08:28:51.311Z,8.27
2018-10-18T08:31:18.923Z,8.23
2018-10-18T08:33:46.355Z,9.17
2018-10-18T08:36:13.836Z,9.20
2018-10-18T08:38:41.333Z,8.87
2018-10-18T08:41:09.139Z,7.70
2018-10-18T08:43:36.645Z,8.57
2018-10-18T08:46:04.248Z,7.73
2018-10-18T08:48:31.735Z,7.17
2018-10-18T08:50:59.253Z,7.63
2018-10-18T08:53:26.733Z,8.57
2018-10-18T08:55:54.241Z,7.43
2018-10-18T08:58:21.720Z,7.10
2018-10-18T09:00:49.199Z,6.73
2018-10-18T09:03:16.689Z,7.37
2018-10-18T09:05:44.164Z,7.60
2018-10-18T09:08:11.631Z,7.13
2018-10-18T09:10:39.133Z,6.43
2018-10-18T09:13:06.654Z,6.33
2018-10-18T09:15:34.195Z,6.03
2018-10-18T09:18:01.737Z,6.17
2018-10-18T09:20:29.249Z,6.30
2018-10-18T09:22:56.705Z,5.87
2018-10-18T09:25:24.359Z,6.80
2018-10-18T09:27:51.670Z,6.97
2018-10-18T09:30:19.226Z,6.10
2018-10-18T09:32:46.723Z,6.43
2018-10-18T09:35:14.236Z,5.63
2018-10-18T09:37:41.733Z,6.00
2018-10-18T09:40:10.129Z,5.53
2018-10-18T09:42:37.696Z,6.97
2018-10-18T09:45:06.664Z,6.40
2018-10-18T09:47:34.206Z,6.50
2018-10-18T09:50:01.702Z,6.63
2018-10-18T09:52:29.201Z,5.43
2018-10-18T09:54:56.787Z,7.10
2018-10-18T09:57:24.194Z,8.20
2018-10-18T09:59:51.681Z,8.10
2018-10-18T10:02:24.900Z,7.77
2018-10-18T10:04:52.419Z,7.70
2018-10-18T10:07:19.932Z,8.90
2018-10-18T10:09:47.402Z,8.90
2018-10-18T10:12:14.859Z,8.43
2018-10-18T10:14:42.342Z,9.87
2018-10-18T10:17:09.919Z,8.87
2018-10-18T10:19:37.376Z,9.03
2018-10-18T10:22:05.111Z,9.33
2018-10-18T10:24:32.666Z,11.20
2018-10-18T10:27:00.113Z,10.77
2018-10-18T10:29:27.659Z,10.23
2018-10-18T10:31:55.183Z,9.90
2018-10-18T10:34:22.677Z,10.00
2018-10-18T10:36:50.192Z,9.07
2018-10-18T10:39:17.759Z,9.80
2018-10-18T10:41:45.231Z,8.63
2018-10-18T10:44:12.876Z,8.73
2018-10-18T10:46:40.731Z,10.13
2018-10-18T10:49:08.937Z,8.90
2018-10-18T10:51:36.951Z,8.63
2018-10-18T10:54:05.543Z,9.03
2018-10-18T10:56:33.048Z,9.33
2018-10-18T10:59:04.904Z,8.77
2018-10-18T11:01:32.385Z,8.37
2018-10-18T11:03:59.858Z,9.20
2018-10-18T11:06:27.367Z,8.17
2018-10-18T11:08:54.898Z,8.83
2018-10-18T11:11:22.710Z,8.43
2018-10-18T11:13:50.214Z,8.00
2018-10-18T11:16:17.752Z,7.40
2018-10-18T11:18:45.307Z,7.03
2018-10-18T11:21:15.097Z,5.33
2018-10-18T11:23:42.561Z,5.57
2018-10-18T11:26:10.185Z,4.73
2018-10-18T11:28:37.595Z,4.97
2018-10-18T11:31:05.215Z,4.73
2018-10-18T11:33:32.710Z,4.83
2018-10-18T11:36:00.324Z,4.57
2018-10-18T11:38:27.774Z,4.23
2018-10-18T11:40:55.284Z,5.47
2018-10-18T11:43:22.792Z,5.20
2018-10-18T11:45:50.305Z,5.33
2018-10-18T11:48:17.823Z,5.00
2018-10-18T11:50:45.641Z,5.43
2018-10-18T11:53:13.182Z,5.40
2018-10-18T11:55:40.773Z,5.53
2018-10-18T11:58:09.312Z,5.93
2018-10-18T12:00:36.832Z,5.40
2018-10-18T12:03:04.748Z,6.00
2018-10-18T12:05:32.228Z,5.40
2018-10-18T12:07:59.756Z,3.70
2018-10-18T12:10:27.269Z,4.23
2018-10-18T12:12:54.777Z,3.93
2018-10-18T12:15:22.268Z,3.87
2018-10-18T12:17:49.809Z,3.30
2018-10-18T12:20:17.786Z,3.20
2018-10-18T12:22:45.255Z,3.00
2018-10-18T12:25:13.268Z,3.10
2018-10-18T12:27:41.161Z,3.27
2018-10-18T12:30:09.174Z,2.63
2018-10-18T12:32:36.997Z,3.00
2018-10-18T12:35:04.754Z,2.70
2018-10-18T12:37:32.180Z,2.23
2018-10-18T12:39:59.882Z,2.03
2018-10-18T12:42:27.444Z,2.17
2018-10-18T12:44:55.006Z,1.90
2018-10-18T12:47:22.492Z,2.00
2018-10-18T12:49:50.010Z,2.70
2018-10-18T12:52:17.543Z,2.17
2018-10-18T12:54:45.150Z,2.30
2018-10-18T12:57:13.500Z,2.10
2018-10-18T12:59:41.008Z,2.00
2018-10-18T13:02:08.739Z,1.77
2018-10-18T13:04:36.598Z,1.97
2018-10-18T13:07:10.877Z,1.90
2018-10-18T13:09:38.379Z,2.07
2018-10-18T13:12:05.914Z,2.57
2018-10-18T13:14:33.406Z,1.70
2018-10-18T13:17:00.899Z,2.23
2018-10-18T13:19:28.392Z,2.20
2018-10-18T13:21:55.921Z,1.93
2018-10-18T13:24:23.411Z,2.37
2018-10-18T13:26:51.051Z,1.93
2018-10-18T13:29:18.583Z,2.33
2018-10-18T13:31:46.281Z,1.27
2018-10-18T13:34:13.802Z,2.20
2018-10-18T13:36:41.324Z,2.07
2018-10-18T13:39:10.417Z,2.80
2018-10-18T13:41:38.161Z,2.63
2018-10-18T13:44:05.882Z,1.93
2018-10-18T13:46:33.522Z,2.33
2018-10-18T13:49:00.975Z,2.30
2018-10-18T13:51:28.561Z,2.20
2018-10-18T13:53:56.116Z,2.20
2018-10-18T13:56:23.641Z,1.80
2018-10-18T13:58:51.165Z,1.60
2018-10-18T14:01:18.689Z,2.60
2018-10-18T14:03:46.221Z,1.80
2018-10-18T14:06:13.771Z,2.00
2018-10-18T14:08:41.352Z,1.93
2018-10-18T14:11:08.927Z,1.77
2018-10-18T14:13:36.437Z,1.70
2018-10-18T14:16:04.369Z,1.47
2018-10-18T14:18:31.872Z,2.20
2018-10-18T14:20:59.429Z,1.70
2018-10-18T14:23:26.973Z,1.80
2018-10-18T14:25:54.521Z,1.83
2018-10-18T14:28:22.022Z,1.80
2018-10-18T14:30:49.587Z,1.60
2018-10-18T14:33:17.123Z,1.30
2018-10-18T14:35:44.692Z,1.73
2018-10-18T14:38:12.324Z,1.73
2018-10-18T14:40:39.778Z,1.40
2018-10-18T14:43:07.314Z,1.57
2018-10-18T14:45:34.858Z,1.80
2018-10-18T14:48:02.332Z,1.73
2018-10-18T14:50:30.374Z,1.90
2018-10-18T14:52:57.655Z,1.67
2018-10-18T14:55:25.163Z,1.53
2018-10-18T14:57:52.742Z,1.67
2018-10-18T15:00:20.262Z,2.10
2018-10-18T15:02:47.778Z,1.57
2018-10-18T15:05:15.435Z,1.80
2018-10-18T15:07:42.940Z,1.80
2018-10-18T15:10:11.812Z,2.50
2018-10-18T15:12:39.643Z,1.87
2018-10-18T15:15:08.164Z,1.70
2018-10-18T15:17:35.722Z,1.93
2018-10-18T15:20:03.758Z,2.47
2018-10-18T15:22:31.344Z,1.60
2018-10-18T15:24:58.882Z,1.93
2018-10-18T15:27:26.550Z,2.03
2018-10-18T15:29:53.960Z,2.17
2018-10-18T15:32:21.524Z,2.47
2018-10-18T15:34:48.959Z,1.67
2018-10-18T15:37:16.494Z,2.20
2018-10-18T15:39:43.987Z,2.00
2018-10-18T15:42:11.506Z,2.20
2018-10-18T15:44:39.022Z,1.70
2018-10-18T15:47:06.565Z,1.93
2018-10-18T15:49:34.106Z,1.97
2018-10-18T15:52:01.609Z,2.13
2018-10-18T15:54:29.204Z,1.70
2018-10-18T15:56:56.737Z,2.17
2018-10-18T15:59:24.228Z,1.97
2018-10-18T16:01:51.710Z,2.67
2018-10-18T16:04:19.210Z,1.90
2018-10-18T16:06:46.798Z,1.93
2018-10-18T16:09:14.662Z,1.93
2018-10-18T16:11:42.194Z,1.77
2018-10-18T16:14:09.772Z,1.77
2018-10-18T16:16:37.200Z,1.43
2018-10-18T16:19:04.930Z,1.67
2018-10-18T16:21:32.414Z,1.73
2018-10-18T16:23:59.929Z,2.90
2018-10-18T16:26:27.475Z,4.70
2018-10-18T16:28:55.020Z,2.70
2018-10-18T16:31:22.551Z,3.33
2018-10-18T16:33:50.085Z,2.37
2018-10-18T16:36:17.547Z,2.27
2018-10-18T16:38:45.109Z,1.80
2018-10-18T16:41:12.866Z,2.00
2018-10-18T16:43:40.205Z,1.80
2018-10-18T16:46:07.763Z,1.77
2018-10-18T16:48:35.283Z,1.40
2018-10-18T16:51:02.874Z,2.00
2018-10-18T16:53:30.421Z,1.60
2018-10-18T16:55:58.053Z,2.10
2018-10-18T16:58:25.605Z,1.70
2018-10-18T17:00:53.107Z,1.80
2018-10-18T17:03:20.633Z,2.43
2018-10-18T17:05:48.183Z,3.20
2018-10-18T17:08:15.798Z,2.60
2018-10-18T17:10:43.538Z,1.90
2018-10-18T17:13:11.069Z,1.43
2018-10-18T17:15:38.592Z,2.07
2018-10-18T17:18:06.172Z,1.50
2018-10-18T17:20:33.714Z,1.33
2018-10-18T17:23:01.221Z,1.67
2018-10-18T17:25:28.732Z,2.33
2018-10-18T17:27:56.346Z,2.20
2018-10-18T17:30:23.877Z,2.10
2018-10-18T17:32:51.457Z,1.40
2018-10-18T17:35:18.986Z,1.50
2018-10-18T17:37:46.489Z,1.73
2018-10-18T17:40:14.209Z,1.80
2018-10-18T17:42:41.604Z,1.70
2018-10-18T17:45:10.205Z,4.20
2018-10-18T17:47:37.765Z,2.70
2018-10-18T17:50:05.831Z,4.03
2018-10-18T17:52:34.012Z,2.33
2018-10-18T17:55:01.556Z,3.67
2018-10-18T17:57:29.082Z,6.37
2018-10-18T17:59:56.738Z,5.53
2018-10-18T18:02:24.252Z,6.40
2018-10-18T18:04:51.820Z,3.10
2018-10-18T18:07:19.362Z,2.60
2018-10-18T18:09:47.001Z,3.27
2018-10-18T18:12:14.564Z,3.63
2018-10-18T18:14:42.070Z,2.67
2018-10-18T18:17:09.673Z,4.80
2018-10-18T18:19:37.257Z,2.70
2018-10-18T18:22:05.216Z,3.50
2018-10-18T18:24:32.697Z,2.63
2018-10-18T18:27:00.402Z,2.90
2018-10-18T18:29:27.942Z,2.83
2018-10-18T18:31:55.489Z,2.53
2018-10-18T18:34:23.023Z,2.47
2018-10-18T18:36:50.529Z,1.73
2018-10-18T18:39:18.380Z,3.17
2018-10-18T18:41:46.106Z,2.70
2018-10-18T18:44:13.690Z,3.13
2018-10-18T18:46:41.252Z,3.73
2018-10-18T18:49:08.698Z,3.13
2018-10-18T18:51:36.313Z,2.97
2018-10-18T18:54:03.792Z,2.80
2018-10-18T18:56:31.576Z,2.57
2018-10-18T18:58:59.104Z,2.37
2018-10-18T19:01:26.596Z,2.50
2018-10-18T19:03:54.120Z,2.10
2018-10-18T19:06:21.856Z,2.53
2018-10-18T19:08:49.387Z,3.10
2018-10-18T19:11:16.878Z,2.30
2018-10-18T19:13:44.372Z,3.93
2018-10-18T19:16:11.914Z,2.43
2018-10-18T19:18:39.407Z,3.13
2018-10-18T19:21:07.012Z,2.00
2018-10-18T19:23:35.463Z,2.30
2018-10-18T19:26:02.984Z,1.57
2018-10-18T19:28:30.575Z,1.73
2018-10-18T19:30:58.228Z,2.07
2018-10-18T19:33:25.724Z,2.03
2018-10-18T19:35:53.238Z,2.03
2018-10-18T19:38:20.790Z,1.60
2018-10-18T19:40:48.279Z,1.40
2018-10-18T19:43:15.982Z,1.50
2018-10-18T19:45:43.577Z,1.63
2018-10-18T19:48:11.556Z,1.73
2018-10-18T19:50:39.150Z,1.47
2018-10-18T19:53:07.166Z,1.60
2018-10-18T19:55:34.615Z,1.73
2018-10-18T19:58:02.318Z,2.53
2018-10-18T20:00:29.924Z,1.13
2018-10-18T20:02:57.570Z,1.43
2018-10-18T20:05:25.124Z,1.10
2018-10-18T20:07:52.911Z,1.70
2018-10-18T20:10:20.509Z,1.53
2018-10-18T20:12:48.129Z,1.53
2018-10-18T20:15:15.910Z,1.30
2018-10-18T20:17:43.312Z,1.53
2018-10-18T20:20:11.110Z,1.57
2018-10-18T20:22:38.708Z,1.27
2018-10-18T20:25:07.295Z,1.53
2018-10-18T20:27:34.596Z,1.63
2018-10-18T20:30:02.209Z,1.63
2018-10-18T20:32:29.752Z,2.07
2018-10-18T20:34:57.177Z,1.83
2018-10-18T20:37:24.699Z,1.93
2018-10-18T20:39:52.315Z,2.23
2018-10-18T20:42:19.728Z,1.43
2018-10-18T20:44:47.275Z,1.23
2018-10-18T20:47:14.848Z,1.87
2018-10-18T20:49:42.265Z,1.40
2018-10-18T20:52:09.775Z,1.80
2018-10-18T20:54:37.317Z,1.77
2018-10-18T20:57:05.005Z,1.60
2018-10-18T20:59:32.518Z,1.30
2018-10-18T21:02:00.131Z,1.40
2018-10-18T21:04:27.615Z,1.73
2018-10-18T21:06:55.104Z,1.37
2018-10-18T21:09:22.581Z,1.40
2018-10-18T21:11:50.061Z,1.90
2018-10-18T21:14:17.589Z,1.63
2018-10-18T21:16:45.070Z,1.13
2018-10-18T21:19:12.609Z,1.40
2018-10-18T21:21:40.112Z,2.03
2018-10-18T21:24:07.583Z,1.40
2018-10-18T21:26:35.107Z,1.07
2018-10-18T21:29:02.619Z,2.00
2018-10-18T21:31:30.079Z,1.67
2018-10-18T21:33:57.616Z,1.23
2018-10-18T21:36:25.120Z,1.20
2018-10-18T21:38:52.652Z,1.37
2018-10-18T21:41:20.149Z,1.30
2018-10-18T21:43:47.675Z,1.13
2018-10-18T21:46:15.199Z,1.23
2018-10-18T21:48:42.930Z,1.53
2018-10-18T21:51:10.500Z,1.40
2018-10-18T21:53:37.955Z,2.07
2018-10-18T21:56:05.458Z,1.77
2018-10-18T21:58:32.961Z,1.43
2018-10-18T22:01:00.477Z,1.27
2018-10-18T22:03:27.974Z,1.50
2018-10-18T22:05:55.490Z,1.10
2018-10-18T22:08:22.983Z,1.43
2018-10-18T22:10:50.492Z,1.50
2018-10-18T22:13:17.978Z,1.57
2018-10-18T22:15:45.477Z,1.43
2018-10-18T22:18:12.993Z,1.50
2018-10-18T22:20:40.507Z,1.47
2018-10-18T22:23:08.076Z,1.50
2018-10-18T22:25:35.508Z,1.83
2018-10-18T22:28:02.988Z,1.20
2018-10-18T22:30:30.512Z,1.20
2018-10-18T22:32:57.988Z,2.00
2018-10-18T22:35:25.526Z,1.10
2018-10-18T22:37:53.027Z,0.97
2018-10-18T22:40:20.525Z,1.40
2018-10-18T22:42:48.000Z,1.27
2018-10-18T22:45:15.669Z,1.53
2018-10-18T22:47:43.188Z,1.00
2018-10-18T22:50:10.694Z,1.20
2018-10-18T22:52:38.196Z,1.30
2018-10-18T22:55:05.790Z,1.20
2018-10-18T22:57:33.386Z,1.30
2018-10-18T23:00:00.901Z,1.20
2018-10-18T23:02:28.448Z,1.40
2018-10-18T23:04:55.940Z,1.10
2018-10-18T23:07:23.432Z,1.40
2018-10-18T23:09:51.002Z,1.20
2018-10-18T23:12:18.462Z,1.60
2018-10-18T23:14:45.951Z,1.30
2018-10-18T23:17:13.529Z,1.30
2018-10-18T23:19:40.928Z,1.30
2018-10-18T23:22:08.489Z,1.23
2018-10-18T23:24:37.564Z,1.07
2018-10-18T23:27:05.605Z,1.10
2018-10-18T23:29:33.081Z,1.60
2018-10-18T23:32:00.564Z,1.60
2018-10-18T23:34:28.084Z,1.00
2018-10-18T23:36:55.599Z,1.27
2018-10-18T23:39:23.060Z,1.20
2018-10-18T23:41:50.564Z,0.90
2018-10-18T23:44:18.022Z,1.30
2018-10-18T23:46:45.473Z,0.90
2018-10-18T23:49:12.980Z,1.33
2018-10-18T23:51:40.434Z,1.10
2018-10-18T23:54:07.910Z,1.33
2018-10-18T23:56:35.408Z,1.30
2018-10-18T23:59:02.944Z,1.20
